createdAt,value
2022-12-13T00:00:57.739Z,-2.70
2022-12-13T00:03:24.322Z,-2.60
2022-12-13T00:05:50.979Z,-2.70
2022-12-13T00:08:17.710Z,-2.80
2022-12-13T00:10:44.443Z,-2.70
2022-12-13T00:13:11.038Z,-2.80
2022-12-13T00:15:37.827Z,-2.70
2022-12-13T00:18:04.462Z,-2.70
2022-12-13T00:20:31.099Z,-2.80
2022-12-13T00:22:57.875Z,-2.80
2022-12-13T00:25:24.753Z,-2.70
2022-12-13T00:27:51.329Z,-2.70
2022-12-13T00:30:17.972Z,-2.80
2022-12-13T00:32:44.604Z,-2.80
2022-12-13T00:35:11.165Z,-2.70
2022-12-13T00:37:37.731Z,-2.70
2022-12-13T00:40:04.852Z,-2.80
2022-12-13T00:42:31.694Z,-2.90
2022-12-13T00:44:58.452Z,-3.00
2022-12-13T00:47:25.545Z,-3.00
2022-12-13T00:49:52.138Z,-3.00
2022-12-13T00:52:18.724Z,-3.10
2022-12-13T00:54:45.335Z,-3.10
2022-12-13T00:57:11.929Z,-3.20
2022-12-13T00:59:38.534Z,-3.20
2022-12-13T01:02:05.120Z,-3.30
2022-12-13T01:04:31.750Z,-3.20
2022-12-13T01:06:58.475Z,-3.30
2022-12-13T01:09:31.148Z,-3.30
2022-12-13T01:11:59.714Z,-3.30
2022-12-13T01:14:26.841Z,-3.20
2022-12-13T01:16:55.918Z,-3.20
2022-12-13T01:19:23.708Z,-3.40
2022-12-13T01:21:53.693Z,-3.40
2022-12-13T01:24:22.804Z,-3.50
2022-12-13T01:26:49.637Z,-3.40
2022-12-13T01:29:16.665Z,-3.50
2022-12-13T01:31:43.647Z,-3.60
2022-12-13T01:34:15.690Z,-3.50
2022-12-13T01:36:43.873Z,-3.40
2022-12-13T01:39:15.127Z,-3.30
2022-12-13T01:41:48.090Z,-3.20
2022-12-13T01:44:58.219Z,-3.10
2022-12-13T01:47:32.932Z,-3.10
2022-12-13T01:50:02.649Z,-3.10
2022-12-13T01:52:32.603Z,-3.00
2022-12-13T01:55:03.758Z,-3.00
2022-12-13T01:57:32.834Z,-2.90
2022-12-13T01:59:59.538Z,-2.80
2022-12-13T02:02:26.419Z,-2.80
2022-12-13T02:05:11.337Z,-2.80
2022-12-13T02:07:40.882Z,-2.80
2022-12-13T02:10:08.850Z,-2.80
2022-12-13T02:12:37.697Z,-2.80
2022-12-13T02:15:08.374Z,-2.80
2022-12-13T02:17:56.407Z,-2.80
2022-12-13T02:21:07.834Z,-2.90
2022-12-13T02:23:46.469Z,-3.00
2022-12-13T02:26:24.859Z,-3.00
2022-12-13T02:29:07.015Z,-3.10
2022-12-13T02:32:02.803Z,-3.10
2022-12-13T02:34:39.038Z,-3.10
2022-12-13T02:37:17.531Z,-3.20
2022-12-13T02:39:53.952Z,-3.20
2022-12-13T02:42:29.484Z,-3.20
2022-12-13T02:45:08.481Z,-3.10
2022-12-13T02:47:38.079Z,-3.20
2022-12-13T02:50:07.340Z,-3.10
2022-12-13T02:52:34.677Z,-3.10
2022-12-13T02:55:07.052Z,-3.10
2022-12-13T02:57:42.195Z,-3.00
2022-12-13T03:00:16.683Z,-2.90
2022-12-13T03:03:04.352Z,-2.90
2022-12-13T03:06:33.628Z,-2.80
2022-12-13T03:09:34.888Z,-2.80
2022-12-13T03:12:42.713Z,-2.70
2022-12-13T03:15:24.414Z,-2.70
2022-12-13T03:18:15.293Z,-2.60
2022-12-13T03:21:11.356Z,-2.70
2022-12-13T03:23:38.300Z,-2.70
2022-12-13T03:26:15.959Z,-2.70
2022-12-13T03:28:42.635Z,-2.80
2022-12-13T03:31:09.541Z,-2.80
2022-12-13T03:33:36.743Z,-2.80
2022-12-13T03:36:03.638Z,-2.70
2022-12-13T03:38:30.975Z,-2.70
2022-12-13T03:41:02.119Z,-2.60
2022-12-13T03:43:29.274Z,-2.60
2022-12-13T03:45:55.974Z,-2.60
2022-12-13T03:48:23.906Z,-2.60
2022-12-13T03:50:52.782Z,-2.60
2022-12-13T03:53:22.277Z,-2.60
2022-12-13T03:55:50.256Z,-2.50
2022-12-13T03:58:16.864Z,-2.50
2022-12-13T04:00:44.040Z,-2.60
2022-12-13T04:03:11.026Z,-2.60
2022-12-13T04:05:37.697Z,-2.60
2022-12-13T04:08:04.723Z,-2.50
2022-12-13T04:10:48.927Z,-2.50
2022-12-13T04:13:33.670Z,-2.50
2022-12-13T04:16:03.448Z,-2.50
2022-12-13T04:18:30.638Z,-2.50
2022-12-13T04:20:57.989Z,-2.50
2022-12-13T04:23:24.623Z,-2.40
2022-12-13T04:25:51.883Z,-2.40
2022-12-13T04:28:22.322Z,-2.40
2022-12-13T04:30:53.152Z,-2.40
2022-12-13T04:33:24.435Z,-2.40
2022-12-13T04:35:51.561Z,-2.40
2022-12-13T04:38:19.080Z,-2.40
2022-12-13T04:40:46.112Z,-2.40
2022-12-13T04:43:12.897Z,-2.40
2022-12-13T04:45:39.570Z,-2.40
2022-12-13T04:48:06.408Z,-2.40
2022-12-13T04:50:33.746Z,-2.40
2022-12-13T04:53:00.460Z,-2.30
2022-12-13T04:55:27.046Z,-2.30
2022-12-13T04:57:53.655Z,-2.30
2022-12-13T05:00:22.277Z,-2.30
2022-12-13T05:02:49.166Z,-2.30
2022-12-13T05:05:16.034Z,-2.30
2022-12-13T05:07:43.162Z,-2.20
2022-12-13T05:10:11.398Z,-2.20
2022-12-13T05:12:38.497Z,-2.20
2022-12-13T05:15:06.175Z,-2.20
2022-12-13T05:17:32.917Z,-2.20
2022-12-13T05:19:59.505Z,-2.30
2022-12-13T05:22:26.585Z,-2.30
2022-12-13T05:24:53.239Z,-2.20
2022-12-13T05:27:24.569Z,-2.20
2022-12-13T05:30:02.319Z,-2.20
2022-12-13T05:32:33.801Z,-2.20
2022-12-13T05:35:12.310Z,-2.20
2022-12-13T05:37:39.222Z,-2.10
2022-12-13T05:40:06.477Z,-2.10
2022-12-13T05:42:33.086Z,-2.10
2022-12-13T05:44:59.662Z,-2.10
2022-12-13T05:47:26.210Z,-2.10
2022-12-13T05:49:52.877Z,-2.10
2022-12-13T05:52:21.099Z,-2.10
2022-12-13T05:54:48.264Z,-2.00
2022-12-13T05:57:15.319Z,-1.80
2022-12-13T05:59:41.956Z,-1.90
2022-12-13T06:02:08.760Z,-1.90
2022-12-13T06:04:35.514Z,-1.90
2022-12-13T06:07:02.097Z,-1.80
2022-12-13T06:09:28.674Z,-1.80
2022-12-13T06:12:01.219Z,-1.80
2022-12-13T06:14:28.243Z,-1.80
2022-12-13T06:16:55.231Z,-1.80
2022-12-13T06:19:23.101Z,-1.80
2022-12-13T06:21:50.606Z,-1.80
2022-12-13T06:24:19.658Z,-1.80
2022-12-13T06:26:47.172Z,-1.80
2022-12-13T06:29:23.150Z,-1.80
2022-12-13T06:32:01.253Z,-1.70
2022-12-13T06:34:31.936Z,-1.70
2022-12-13T06:36:58.526Z,-1.70
2022-12-13T06:39:33.026Z,-1.70
2022-12-13T06:42:01.677Z,-1.70
2022-12-13T06:44:28.635Z,-1.70
2022-12-13T06:47:11.791Z,-1.80
2022-12-13T06:49:41.018Z,-1.70
2022-12-13T06:52:11.705Z,-1.70
2022-12-13T06:54:38.463Z,-1.70
2022-12-13T06:57:05.150Z,-1.70
2022-12-13T06:59:31.778Z,-1.70
2022-12-13T07:02:03.674Z,-1.60
2022-12-13T07:04:32.623Z,-1.60
2022-12-13T07:07:01.392Z,-1.60
2022-12-13T07:09:30.733Z,-1.60
2022-12-13T07:11:57.719Z,-1.60
2022-12-13T07:14:24.442Z,-1.60
2022-12-13T07:16:51.187Z,-1.60
2022-12-13T07:19:23.375Z,-1.60
2022-12-13T07:21:51.849Z,-1.60
2022-12-13T07:24:18.599Z,-1.50
2022-12-13T07:26:45.619Z,-1.50
2022-12-13T07:29:12.305Z,-1.50
2022-12-13T07:31:39.117Z,-1.50
2022-12-13T07:34:05.888Z,-1.50
2022-12-13T07:36:32.648Z,-1.50
2022-12-13T07:38:59.307Z,-1.50
2022-12-13T07:41:26.832Z,-1.40
2022-12-13T07:43:55.566Z,-1.40
2022-12-13T07:46:32.664Z,-1.40
2022-12-13T07:49:05.244Z,-1.40
2022-12-13T07:51:34.641Z,-1.40
2022-12-13T07:54:01.358Z,-1.40
2022-12-13T07:56:33.777Z,-1.30
2022-12-13T07:59:00.495Z,-1.40
2022-12-13T08:01:27.749Z,-1.40
2022-12-13T08:03:54.770Z,-1.30
2022-12-13T08:06:21.433Z,-1.30
2022-12-13T08:08:50.977Z,-1.30
2022-12-13T08:11:17.983Z,-1.30
2022-12-13T08:13:44.923Z,-1.30
2022-12-13T08:16:28.134Z,-1.20
2022-12-13T08:19:02.939Z,-1.20
2022-12-13T08:24:26.591Z,-1.20
2022-12-13T08:26:53.801Z,-1.10
2022-12-13T08:29:22.773Z,-1.10
2022-12-13T08:32:01.649Z,-1.10
2022-12-13T08:34:28.506Z,-1.00
2022-12-13T08:37:01.838Z,-1.00
2022-12-13T08:39:35.375Z,-1.00
2022-12-13T08:42:16.833Z,-0.90
2022-12-13T08:44:49.777Z,-0.90
2022-12-13T08:47:24.704Z,-0.80
2022-12-13T08:50:02.057Z,-0.80
2022-12-13T08:52:40.810Z,-0.80
2022-12-13T08:55:10.602Z,-0.80
2022-12-13T08:57:38.435Z,-0.70
2022-12-13T09:00:06.344Z,-0.70
2022-12-13T09:02:37.858Z,-0.40
2022-12-13T09:05:07.088Z,-0.40
2022-12-13T09:07:35.810Z,-0.40
2022-12-13T09:10:07.250Z,-0.40
2022-12-13T09:12:50.542Z,-0.40
2022-12-13T09:15:22.655Z,-0.40
2022-12-13T09:17:51.959Z,-0.40
2022-12-13T09:20:28.659Z,-0.40
2022-12-13T09:23:02.469Z,-0.40
2022-12-13T09:25:37.323Z,-0.30
2022-12-13T09:28:07.026Z,-0.20
2022-12-13T09:30:34.101Z,-0.20
2022-12-13T09:33:17.608Z,-0.20
2022-12-13T09:35:47.369Z,-0.20
2022-12-13T09:38:14.010Z,-0.10
2022-12-13T09:40:43.724Z,-0.10
2022-12-13T09:43:21.795Z,-0.10
2022-12-13T09:45:52.291Z,-0.10
2022-12-13T09:48:28.982Z,0.00
2022-12-13T09:51:17.014Z,0.10
2022-12-13T09:53:51.339Z,0.10
2022-12-13T09:56:20.511Z,0.20
2022-12-13T09:58:56.377Z,0.20
2022-12-13T10:01:24.097Z,0.20
2022-12-13T10:03:54.077Z,0.20
2022-12-13T10:06:24.281Z,0.30
2022-12-13T10:08:58.345Z,0.30
2022-12-13T10:11:32.547Z,0.30
2022-12-13T10:14:08.493Z,0.30
2022-12-13T10:16:36.542Z,0.30
2022-12-13T10:19:28.183Z,0.30
2022-12-13T10:21:55.769Z,0.30
2022-12-13T10:24:48.752Z,0.40
2022-12-13T10:27:18.535Z,0.40
2022-12-13T10:30:02.021Z,0.30
2022-12-13T10:32:37.487Z,0.40
2022-12-13T10:35:23.467Z,0.40
2022-12-13T10:37:50.550Z,0.50
2022-12-13T10:40:38.472Z,0.50
2022-12-13T10:43:23.096Z,0.50
2022-12-13T10:45:55.992Z,0.50
2022-12-13T10:48:38.756Z,0.50
2022-12-13T10:51:07.773Z,0.50
2022-12-13T10:53:47.827Z,0.50
2022-12-13T10:56:22.488Z,0.50
2022-12-13T10:59:13.329Z,0.60
2022-12-13T11:01:42.148Z,0.60
2022-12-13T11:04:31.444Z,0.60
2022-12-13T11:07:20.443Z,0.60
2022-12-13T11:09:52.722Z,0.70
2022-12-13T11:12:25.780Z,0.90
2022-12-13T11:15:03.337Z,0.80
2022-12-13T11:17:33.534Z,0.80
2022-12-13T11:20:15.617Z,0.80
2022-12-13T11:22:42.453Z,0.80
2022-12-13T11:25:19.671Z,0.80
2022-12-13T11:27:58.455Z,0.80
2022-12-13T11:30:41.055Z,0.70
2022-12-13T11:33:16.715Z,0.70
2022-12-13T11:35:56.194Z,0.60
2022-12-13T11:39:01.283Z,0.60
2022-12-13T11:41:33.539Z,0.60
2022-12-13T11:44:48.300Z,0.60
2022-12-13T11:47:25.165Z,0.60
2022-12-13T11:49:52.595Z,0.60
2022-12-13T11:52:28.972Z,0.60
2022-12-13T11:55:32.186Z,0.60
2022-12-13T11:58:53.924Z,0.70
2022-12-13T12:01:21.594Z,0.60
2022-12-13T12:03:50.169Z,0.50
2022-12-13T12:06:29.529Z,0.50
2022-12-13T12:09:06.468Z,0.60
2022-12-13T12:11:51.874Z,0.60
2022-12-13T12:14:21.797Z,0.60
2022-12-13T12:16:53.981Z,0.60
2022-12-13T12:19:35.977Z,0.60
2022-12-13T12:22:36.515Z,0.60
2022-12-13T12:25:27.301Z,0.60
2022-12-13T12:28:12.761Z,0.70
2022-12-13T12:30:58.889Z,0.60
2022-12-13T12:33:54.423Z,0.60
2022-12-13T12:36:47.499Z,0.60
2022-12-13T12:39:17.571Z,0.60
2022-12-13T12:42:25.545Z,0.60
2022-12-13T12:44:52.419Z,0.60
2022-12-13T12:48:46.371Z,0.80
2022-12-13T12:50:49.676Z,0.90
2022-12-13T12:53:31.816Z,1.00
2022-12-13T12:56:24.806Z,0.90
2022-12-13T12:59:01.068Z,0.90
2022-12-13T13:01:57.087Z,0.90
2022-12-13T13:04:39.002Z,0.90
2022-12-13T13:07:23.354Z,0.80
2022-12-13T13:09:54.802Z,0.80
2022-12-13T13:12:29.713Z,0.80
2022-12-13T13:14:57.781Z,0.80
2022-12-13T13:17:24.345Z,0.80
2022-12-13T13:20:12.227Z,0.80
2022-12-13T13:22:44.234Z,0.80
2022-12-13T13:25:20.985Z,0.70
2022-12-13T13:27:51.221Z,0.80
2022-12-13T13:30:20.693Z,0.80
2022-12-13T13:32:49.179Z,0.80
2022-12-13T13:35:48.027Z,0.80
2022-12-13T13:38:23.846Z,0.80
2022-12-13T13:40:51.242Z,1.80
2022-12-13T13:43:32.138Z,1.40
2022-12-13T13:46:10.730Z,1.30
2022-12-13T13:48:40.478Z,1.20
2022-12-13T13:51:33.230Z,1.10
2022-12-13T13:54:08.800Z,1.00
2022-12-13T13:57:02.798Z,1.00
2022-12-13T14:00:03.496Z,0.90
2022-12-13T14:03:28.818Z,0.90
2022-12-13T14:06:20.525Z,0.80
2022-12-13T14:09:11.743Z,0.80
2022-12-13T14:12:18.594Z,0.80
2022-12-13T14:15:22.251Z,0.80
2022-12-13T14:18:37.300Z,0.80
2022-12-13T14:21:25.713Z,0.90
2022-12-13T14:24:10.975Z,0.90
2022-12-13T14:27:00.470Z,0.90
2022-12-13T14:29:48.173Z,0.80
2022-12-13T14:32:37.050Z,0.80
2022-12-13T14:35:24.961Z,0.80
2022-12-13T14:38:05.683Z,0.70
2022-12-13T14:40:40.312Z,0.70
2022-12-13T14:43:28.746Z,0.60
2022-12-13T14:46:00.970Z,0.60
2022-12-13T14:48:32.691Z,0.70
2022-12-13T14:50:59.331Z,0.70
2022-12-13T14:53:41.099Z,0.70
2022-12-13T14:56:28.467Z,0.70
2022-12-13T14:58:56.937Z,0.70
2022-12-13T15:01:37.064Z,0.70
2022-12-13T15:04:37.743Z,0.70
2022-12-13T15:07:29.570Z,0.70
2022-12-13T15:10:01.946Z,0.70
2022-12-13T15:12:29.857Z,0.70
2022-12-13T15:15:00.576Z,0.70
2022-12-13T15:17:39.393Z,0.70
2022-12-13T15:20:25.175Z,0.70
2022-12-13T15:23:05.976Z,0.70
2022-12-13T15:25:36.303Z,0.70
2022-12-13T15:28:04.819Z,0.70
2022-12-13T15:30:34.808Z,0.60
2022-12-13T15:33:17.992Z,0.60
2022-12-13T15:35:48.017Z,0.60
2022-12-13T15:38:28.496Z,0.60
2022-12-13T15:40:56.863Z,0.60
2022-12-13T15:43:32.948Z,0.60
2022-12-13T15:45:59.995Z,0.60
2022-12-13T15:48:37.198Z,0.50
2022-12-13T15:51:08.204Z,0.50
2022-12-13T15:53:35.551Z,0.50
2022-12-13T15:56:09.441Z,0.40
2022-12-13T15:58:37.151Z,0.40
2022-12-13T16:01:05.547Z,0.40
2022-12-13T16:03:44.202Z,0.30
2022-12-13T16:06:17.996Z,0.30
2022-12-13T16:08:49.290Z,0.20
2022-12-13T16:11:25.277Z,0.30
2022-12-13T16:13:51.966Z,0.20
2022-12-13T16:16:31.912Z,0.20
2022-12-13T16:19:00.444Z,0.20
2022-12-13T16:21:28.283Z,0.20
2022-12-13T16:23:55.106Z,0.10
2022-12-13T16:26:27.943Z,0.20
2022-12-13T16:28:58.494Z,0.10
2022-12-13T16:31:35.409Z,0.10
2022-12-13T16:34:03.744Z,0.10
2022-12-13T16:36:30.401Z,0.10
2022-12-13T16:38:57.018Z,0.10
2022-12-13T16:41:24.142Z,0.10
2022-12-13T16:43:57.209Z,0.10
2022-12-13T16:47:13.384Z,0.10
2022-12-13T16:49:32.055Z,0.10
2022-12-13T16:51:59.679Z,0.10
2022-12-13T16:54:26.473Z,0.10
2022-12-13T16:56:54.364Z,0.10
2022-12-13T16:59:23.841Z,0.10
2022-12-13T17:01:50.991Z,0.10
2022-12-13T17:04:27.271Z,0.10
2022-12-13T17:06:54.658Z,0.20
2022-12-13T17:09:22.495Z,0.10
2022-12-13T17:11:49.140Z,0.20
2022-12-13T17:14:15.901Z,0.20
2022-12-13T17:16:42.775Z,0.20
2022-12-13T17:19:10.866Z,0.20
2022-12-13T17:21:37.536Z,0.30
2022-12-13T17:24:04.409Z,0.30
2022-12-13T17:26:30.987Z,0.30
2022-12-13T17:28:57.589Z,0.30
2022-12-13T17:31:24.746Z,0.30
2022-12-13T17:33:52.451Z,0.30
2022-12-13T17:36:19.157Z,0.30
2022-12-13T17:38:47.625Z,0.30
2022-12-13T17:41:16.077Z,0.40
2022-12-13T17:43:43.795Z,0.30
2022-12-13T17:46:16.275Z,0.30
2022-12-13T17:48:45.370Z,0.30
2022-12-13T17:51:13.083Z,0.30
2022-12-13T17:53:41.262Z,0.40
2022-12-13T17:56:11.822Z,0.40
2022-12-13T17:58:38.678Z,0.30
2022-12-13T18:01:17.599Z,0.30
2022-12-13T18:03:45.023Z,0.40
2022-12-13T18:06:11.938Z,0.30
2022-12-13T18:08:40.380Z,0.30
2022-12-13T18:13:55.003Z,0.10
2022-12-13T18:16:24.060Z,0.10
2022-12-13T18:18:55.459Z,0.10
2022-12-13T18:21:23.837Z,0.10
2022-12-13T18:23:55.863Z,0.10
2022-12-13T18:26:23.917Z,0.10
2022-12-13T18:28:50.722Z,0.10
2022-12-13T18:31:20.603Z,0.20
2022-12-13T18:33:48.385Z,0.30
2022-12-13T18:36:16.603Z,0.20
2022-12-13T18:38:43.514Z,0.30
2022-12-13T18:41:18.258Z,0.30
2022-12-13T18:43:45.733Z,0.30
2022-12-13T18:46:14.441Z,0.30
2022-12-13T18:48:41.592Z,0.30
2022-12-13T18:51:10.259Z,0.40
2022-12-13T18:53:37.833Z,0.40
2022-12-13T18:56:17.492Z,0.50
2022-12-13T18:58:45.538Z,0.50
2022-12-13T19:01:12.944Z,0.50
2022-12-13T19:03:40.217Z,0.60
2022-12-13T19:06:07.475Z,0.60
2022-12-13T19:08:36.228Z,0.60
2022-12-13T19:11:03.772Z,0.60
2022-12-13T19:13:32.181Z,0.60
2022-12-13T19:16:05.478Z,0.50
2022-12-13T19:18:35.105Z,0.50
2022-12-13T19:21:02.176Z,0.50
2022-12-13T19:23:29.427Z,0.60
2022-12-13T19:25:56.515Z,0.70
2022-12-13T19:28:25.582Z,0.60
2022-12-13T19:30:52.216Z,0.60
2022-12-13T19:33:18.879Z,0.50
2022-12-13T19:35:46.801Z,0.50
2022-12-13T19:38:13.803Z,0.50
2022-12-13T19:40:43.490Z,0.60
2022-12-13T19:43:11.312Z,0.60
2022-12-13T19:45:38.095Z,0.60
2022-12-13T19:48:04.876Z,0.70
2022-12-13T19:50:31.579Z,0.60
2022-12-13T19:52:58.143Z,0.60
2022-12-13T19:55:24.942Z,0.60
2022-12-13T19:57:51.666Z,0.60
2022-12-13T20:00:18.340Z,0.60
2022-12-13T20:02:45.171Z,0.50
2022-12-13T20:05:11.825Z,0.50
2022-12-13T20:07:38.577Z,0.50
2022-12-13T20:10:05.983Z,0.50
2022-12-13T20:12:38.942Z,0.50
2022-12-13T20:15:08.240Z,0.50
2022-12-13T20:17:35.642Z,0.40
2022-12-13T20:20:03.749Z,0.50
2022-12-13T20:22:31.094Z,0.40
2022-12-13T20:24:57.742Z,0.40
2022-12-13T20:27:24.462Z,0.40
2022-12-13T20:29:51.098Z,0.40
2022-12-13T20:32:20.895Z,0.30
2022-12-13T20:34:53.096Z,0.30
2022-12-13T20:37:21.566Z,0.30
2022-12-13T20:39:48.233Z,0.30
2022-12-13T20:42:14.925Z,0.30
2022-12-13T20:44:41.625Z,0.30
2022-12-13T20:47:08.338Z,0.30
2022-12-13T20:49:34.989Z,0.30
2022-12-13T20:52:01.820Z,0.20
2022-12-13T20:54:28.475Z,0.20
2022-12-13T20:56:55.098Z,0.20
2022-12-13T20:59:21.792Z,0.20
2022-12-13T21:01:48.873Z,0.20
2022-12-13T21:04:15.848Z,0.20
2022-12-13T21:06:42.646Z,0.20
2022-12-13T21:09:10.545Z,0.20
2022-12-13T21:11:41.104Z,0.20
2022-12-13T21:14:22.334Z,0.20
2022-12-13T21:17:01.162Z,0.20
2022-12-13T21:19:35.887Z,0.20
2022-12-13T21:22:05.901Z,0.20
2022-12-13T21:24:32.537Z,0.20
2022-12-13T21:26:59.798Z,0.10
2022-12-13T21:29:26.460Z,0.10
2022-12-13T21:31:56.053Z,0.10
2022-12-13T21:34:23.497Z,0.10
2022-12-13T21:36:52.307Z,0.10
2022-12-13T21:39:24.684Z,0.10
2022-12-13T21:41:52.069Z,0.00
2022-12-13T21:44:18.832Z,0.10
2022-12-13T21:49:32.052Z,0.00
2022-12-13T21:51:58.650Z,-0.10
2022-12-13T21:54:25.719Z,-0.10
2022-12-13T21:57:10.992Z,0.00
2022-12-13T21:59:37.704Z,-0.10
2022-12-13T22:02:15.604Z,-0.10
2022-12-13T22:04:48.683Z,-0.20
2022-12-13T22:07:18.121Z,-0.10
2022-12-13T22:09:45.625Z,-0.20
2022-12-13T22:12:24.285Z,-0.20
2022-12-13T22:14:52.080Z,-0.20
2022-12-13T22:17:24.880Z,-0.20
2022-12-13T22:19:53.814Z,-0.20
2022-12-13T22:22:22.730Z,-0.30
2022-12-13T22:24:53.463Z,-0.30
2022-12-13T22:27:24.359Z,-0.40
2022-12-13T22:29:56.730Z,-0.50
2022-12-13T22:32:25.253Z,-0.50
2022-12-13T22:34:51.917Z,-0.50
2022-12-13T22:37:18.708Z,-0.50
2022-12-13T22:39:45.568Z,-0.60
2022-12-13T22:42:12.547Z,-0.50
2022-12-13T22:44:39.190Z,-0.50
2022-12-13T22:47:06.582Z,-0.60
2022-12-13T22:49:33.151Z,-0.60
2022-12-13T22:51:59.708Z,-0.60
2022-12-13T22:54:27.626Z,-0.50
2022-12-13T22:56:54.329Z,-0.50
2022-12-13T22:59:22.217Z,-0.50
2022-12-13T23:01:48.869Z,-0.50
2022-12-13T23:04:15.791Z,-0.60
2022-12-13T23:06:42.542Z,-0.60
2022-12-13T23:09:12.627Z,-0.50
2022-12-13T23:11:58.445Z,-0.50
2022-12-13T23:14:31.160Z,-0.50
2022-12-13T23:16:58.285Z,-0.70
2022-12-13T23:19:41.446Z,-0.70
2022-12-13T23:22:12.062Z,-0.70
2022-12-13T23:24:38.616Z,-0.80
2022-12-13T23:27:05.241Z,-0.80
2022-12-13T23:29:31.856Z,-0.80
2022-12-13T23:31:58.417Z,-1.00
2022-12-13T23:34:24.991Z,-0.90
2022-12-13T23:36:51.691Z,-0.90
2022-12-13T23:39:18.350Z,-1.00
2022-12-13T23:41:45.061Z,-0.90
2022-12-13T23:44:11.709Z,-0.90
2022-12-13T23:46:38.499Z,-0.80
2022-12-13T23:49:06.277Z,-0.80
2022-12-13T23:51:34.100Z,-0.80
2022-12-13T23:54:00.953Z,-0.80
2022-12-13T23:56:27.601Z,-0.80
2022-12-13T23:58:54.264Z,-0.90
